sensor_id;sensor_type;location;lat;lon;timestamp;temperature;humidity
27128;DHT22;14660;49.008;8.390;2023-04-27T00:01:18;11.00;99.90
27128;DHT22;14660;49.008;8.390;2023-04-27T00:03:45;10.70;99.90
27128;DHT22;14660;49.008;8.390;2023-04-27T00:06:12;10.60;99.90
27128;DHT22;14660;49.008;8.390;2023-04-27T00:08:39;10.70;99.90
27128;DHT22;14660;49.008;8.390;2023-04-27T00:11:06;10.70;99.90
27128;DHT22;14660;49.008;8.390;2023-04-27T00:13:33;10.70;99.90
27128;DHT22;14660;49.008;8.390;2023-04-27T00:16:00;10.90;99.90
27128;DHT22;14660;49.008;8.390;2023-04-27T00:18:29;10.70;99.90
27128;DHT22;14660;49.008;8.390;2023-04-27T00:20:57;10.70;99.90
27128;DHT22;14660;49.008;8.390;2023-04-27T00:23:24;10.60;99.90
27128;DHT22;14660;49.008;8.390;2023-04-27T00:25:52;10.60;99.90
27128;DHT22;14660;49.008;8.390;2023-04-27T00:28:19;10.70;99.90
27128;DHT22;14660;49.008;8.390;2023-04-27T00:30:44;10.50;99.90
27128;DHT22;14660;49.008;8.390;2023-04-27T00:33:11;10.30;99.90
27128;DHT22;14660;49.008;8.390;2023-04-27T00:35:38;10.20;99.90
27128;DHT22;14660;49.008;8.390;2023-04-27T00:38:05;10.20;99.90
27128;DHT22;14660;49.008;8.390;2023-04-27T00:40:32;10.20;99.90
27128;DHT22;14660;49.008;8.390;2023-04-27T00:42:59;10.30;99.90
27128;DHT22;14660;49.008;8.390;2023-04-27T00:45:26;10.20;99.90
27128;DHT22;14660;49.008;8.390;2023-04-27T00:47:55;10.30;99.90
27128;DHT22;14660;49.008;8.390;2023-04-27T00:50:27;10.20;99.90
27128;DHT22;14660;49.008;8.390;2023-04-27T00:52:57;10.20;99.90
27128;DHT22;14660;49.008;8.390;2023-04-27T00:55:24;10.10;99.90
27128;DHT22;14660;49.008;8.390;2023-04-27T00:57:50;10.00;99.90
27128;DHT22;14660;49.008;8.390;2023-04-27T01:00:17;10.10;99.90
27128;DHT22;14660;49.008;8.390;2023-04-27T01:02:44;10.10;99.90
27128;DHT22;14660;49.008;8.390;2023-04-27T01:05:13;10.00;99.90
27128;DHT22;14660;49.008;8.390;2023-04-27T01:07:41;10.10;99.90
27128;DHT22;14660;49.008;8.390;2023-04-27T01:10:08;10.10;99.90
27128;DHT22;14660;49.008;8.390;2023-04-27T01:12:34;10.10;99.90
27128;DHT22;14660;49.008;8.390;2023-04-27T01:15:00;10.10;99.90
27128;DHT22;14660;49.008;8.390;2023-04-27T01:17:27;10.00;99.90
27128;DHT22;14660;49.008;8.390;2023-04-27T01:19:54;9.90;99.90
27128;DHT22;14660;49.008;8.390;2023-04-27T01:22:22;9.90;99.90
27128;DHT22;14660;49.008;8.390;2023-04-27T01:24:49;10.00;99.90
27128;DHT22;14660;49.008;8.390;2023-04-27T01:27:16;9.90;99.90
27128;DHT22;14660;49.008;8.390;2023-04-27T01:29:42;9.90;99.90
27128;DHT22;14660;49.008;8.390;2023-04-27T01:32:10;10.00;99.90
27128;DHT22;14660;49.008;8.390;2023-04-27T01:34:37;10.10;99.90
27128;DHT22;14660;49.008;8.390;2023-04-27T01:37:06;10.00;99.90
27128;DHT22;14660;49.008;8.390;2023-04-27T01:39:32;10.10;99.90
27128;DHT22;14660;49.008;8.390;2023-04-27T01:41:59;10.10;99.90
27128;DHT22;14660;49.008;8.390;2023-04-27T01:44:28;10.30;99.90
27128;DHT22;14660;49.008;8.390;2023-04-27T01:46:54;10.30;99.90
27128;DHT22;14660;49.008;8.390;2023-04-27T01:49:20;10.10;99.90
27128;DHT22;14660;49.008;8.390;2023-04-27T01:51:47;10.20;99.90
27128;DHT22;14660;49.008;8.390;2023-04-27T01:54:14;10.00;99.90
27128;DHT22;14660;49.008;8.390;2023-04-27T01:56:41;9.90;99.90
27128;DHT22;14660;49.008;8.390;2023-04-27T01:59:08;9.80;99.90
27128;DHT22;14660;49.008;8.390;2023-04-27T02:01:35;9.80;99.90
27128;DHT22;14660;49.008;8.390;2023-04-27T02:04:01;9.90;99.90
27128;DHT22;14660;49.008;8.390;2023-04-27T02:06:29;9.90;99.90
27128;DHT22;14660;49.008;8.390;2023-04-27T02:08:56;9.90;99.90
27128;DHT22;14660;49.008;8.390;2023-04-27T02:11:22;10.10;99.90
27128;DHT22;14660;49.008;8.390;2023-04-27T02:13:49;10.10;99.90
27128;DHT22;14660;49.008;8.390;2023-04-27T02:16:15;10.00;99.90
27128;DHT22;14660;49.008;8.390;2023-04-27T02:18:41;10.00;99.90
27128;DHT22;14660;49.008;8.390;2023-04-27T02:21:09;9.80;99.90
27128;DHT22;14660;49.008;8.390;2023-04-27T02:23:36;9.70;99.90
27128;DHT22;14660;49.008;8.390;2023-04-27T02:26:03;9.80;99.90
27128;DHT22;14660;49.008;8.390;2023-04-27T03:22:23;9.90;99.90
27128;DHT22;14660;49.008;8.390;2023-04-27T03:24:50;9.90;99.90
27128;DHT22;14660;49.008;8.390;2023-04-27T03:27:17;9.80;99.90
27128;DHT22;14660;49.008;8.390;2023-04-27T03:29:44;9.60;99.90
27128;DHT22;14660;49.008;8.390;2023-04-27T03:32:11;9.50;99.90
27128;DHT22;14660;49.008;8.390;2023-04-27T03:34:38;9.50;99.90
27128;DHT22;14660;49.008;8.390;2023-04-27T03:37:07;9.50;99.90
27128;DHT22;14660;49.008;8.390;2023-04-27T03:39:33;9.50;99.90
27128;DHT22;14660;49.008;8.390;2023-04-27T03:42:00;9.40;99.90
27128;DHT22;14660;49.008;8.390;2023-04-27T03:44:28;9.40;99.90
27128;DHT22;14660;49.008;8.390;2023-04-27T03:46:57;9.40;99.90
27128;DHT22;14660;49.008;8.390;2023-04-27T03:49:23;9.50;99.90
27128;DHT22;14660;49.008;8.390;2023-04-27T03:51:50;9.40;99.90
27128;DHT22;14660;49.008;8.390;2023-04-27T03:54:17;9.40;99.90
27128;DHT22;14660;49.008;8.390;2023-04-27T03:56:44;9.50;99.90
27128;DHT22;14660;49.008;8.390;2023-04-27T03:59:10;9.50;99.90
27128;DHT22;14660;49.008;8.390;2023-04-27T04:01:37;9.40;99.90
27128;DHT22;14660;49.008;8.390;2023-04-27T04:04:05;9.40;99.90
27128;DHT22;14660;49.008;8.390;2023-04-27T04:06:32;9.20;99.90
27128;DHT22;14660;49.008;8.390;2023-04-27T04:08:59;8.90;99.90
27128;DHT22;14660;49.008;8.390;2023-04-27T04:11:25;8.80;99.90
27128;DHT22;14660;49.008;8.390;2023-04-27T04:13:52;8.80;99.90
27128;DHT22;14660;49.008;8.390;2023-04-27T04:16:19;8.90;99.90
27128;DHT22;14660;49.008;8.390;2023-04-27T04:18:46;9.20;99.90
27128;DHT22;14660;49.008;8.390;2023-04-27T04:21:14;9.30;99.90
27128;DHT22;14660;49.008;8.390;2023-04-27T04:23:40;9.10;99.90
27128;DHT22;14660;49.008;8.390;2023-04-27T04:26:07;9.00;99.90
27128;DHT22;14660;49.008;8.390;2023-04-27T04:28:35;8.80;99.90
27128;DHT22;14660;49.008;8.390;2023-04-27T04:31:01;8.80;99.90
27128;DHT22;14660;49.008;8.390;2023-04-27T04:33:28;8.80;99.90
27128;DHT22;14660;49.008;8.390;2023-04-27T04:35:56;9.00;99.90
27128;DHT22;14660;49.008;8.390;2023-04-27T04:38:24;9.00;99.90
27128;DHT22;14660;49.008;8.390;2023-04-27T04:40:51;8.90;99.90
27128;DHT22;14660;49.008;8.390;2023-04-27T04:43:18;9.00;99.90
27128;DHT22;14660;49.008;8.390;2023-04-27T04:45:45;9.00;99.90
27128;DHT22;14660;49.008;8.390;2023-04-27T04:48:13;9.30;99.90
27128;DHT22;14660;49.008;8.390;2023-04-27T04:50:41;9.20;99.90
27128;DHT22;14660;49.008;8.390;2023-04-27T04:53:08;9.20;99.90
27128;DHT22;14660;49.008;8.390;2023-04-27T04:55:35;8.80;99.90
27128;DHT22;14660;49.008;8.390;2023-04-27T04:58:02;9.00;99.90
27128;DHT22;14660;49.008;8.390;2023-04-27T05:00:28;9.00;99.90
27128;DHT22;14660;49.008;8.390;2023-04-27T05:02:57;9.00;99.90
27128;DHT22;14660;49.008;8.390;2023-04-27T05:05:24;9.10;99.90
27128;DHT22;14660;49.008;8.390;2023-04-27T05:07:51;9.20;99.90
27128;DHT22;14660;49.008;8.390;2023-04-27T05:10:18;9.30;99.90
27128;DHT22;14660;49.008;8.390;2023-04-27T05:12:44;9.00;99.90
27128;DHT22;14660;49.008;8.390;2023-04-27T05:15:11;9.00;99.90
27128;DHT22;14660;49.008;8.390;2023-04-27T05:17:38;8.80;99.90
27128;DHT22;14660;49.008;8.390;2023-04-27T05:20:06;9.00;99.90
27128;DHT22;14660;49.008;8.390;2023-04-27T05:22:33;9.00;99.90
27128;DHT22;14660;49.008;8.390;2023-04-27T05:25:00;9.10;99.90
27128;DHT22;14660;49.008;8.390;2023-04-27T05:27:27;9.30;99.90
27128;DHT22;14660;49.008;8.390;2023-04-27T05:29:54;9.50;99.90
27128;DHT22;14660;49.008;8.390;2023-04-27T05:32:21;9.50;99.90
27128;DHT22;14660;49.008;8.390;2023-04-27T05:34:47;9.40;99.90
27128;DHT22;14660;49.008;8.390;2023-04-27T05:37:14;9.50;99.90
27128;DHT22;14660;49.008;8.390;2023-04-27T05:39:41;9.40;99.90
27128;DHT22;14660;49.008;8.390;2023-04-27T05:42:07;9.30;99.90
27128;DHT22;14660;49.008;8.390;2023-04-27T05:44:34;9.30;99.90
27128;DHT22;14660;49.008;8.390;2023-04-27T05:47:01;9.20;99.90
27128;DHT22;14660;49.008;8.390;2023-04-27T05:49:27;9.40;99.90
27128;DHT22;14660;49.008;8.390;2023-04-27T05:51:54;9.50;99.90
27128;DHT22;14660;49.008;8.390;2023-04-27T05:54:21;9.60;99.90
27128;DHT22;14660;49.008;8.390;2023-04-27T05:56:48;9.80;99.90
27128;DHT22;14660;49.008;8.390;2023-04-27T05:59:16;9.90;99.90
27128;DHT22;14660;49.008;8.390;2023-04-27T06:01:43;10.00;99.90
27128;DHT22;14660;49.008;8.390;2023-04-27T06:04:10;9.80;99.90
27128;DHT22;14660;49.008;8.390;2023-04-27T06:06:37;9.90;99.90
27128;DHT22;14660;49.008;8.390;2023-04-27T06:09:04;10.20;99.90
27128;DHT22;14660;49.008;8.390;2023-04-27T06:11:30;10.30;99.90
27128;DHT22;14660;49.008;8.390;2023-04-27T06:13:57;10.50;99.90
27128;DHT22;14660;49.008;8.390;2023-04-27T06:16:24;9.80;99.90
27128;DHT22;14660;49.008;8.390;2023-04-27T06:18:51;10.10;99.90
27128;DHT22;14660;49.008;8.390;2023-04-27T06:21:18;10.10;99.90
27128;DHT22;14660;49.008;8.390;2023-04-27T06:23:45;10.10;99.90
27128;DHT22;14660;49.008;8.390;2023-04-27T06:26:12;10.30;99.90
27128;DHT22;14660;49.008;8.390;2023-04-27T06:28:39;10.50;99.90
27128;DHT22;14660;49.008;8.390;2023-04-27T06:31:05;10.70;99.90
27128;DHT22;14660;49.008;8.390;2023-04-27T06:33:32;10.80;99.90
27128;DHT22;14660;49.008;8.390;2023-04-27T06:36:00;11.00;99.90
27128;DHT22;14660;49.008;8.390;2023-04-27T06:38:27;10.80;99.90
27128;DHT22;14660;49.008;8.390;2023-04-27T06:40:54;10.90;99.90
27128;DHT22;14660;49.008;8.390;2023-04-27T06:43:21;11.20;99.90
27128;DHT22;14660;49.008;8.390;2023-04-27T06:45:48;11.40;99.90
27128;DHT22;14660;49.008;8.390;2023-04-27T06:48:15;11.10;99.90
27128;DHT22;14660;49.008;8.390;2023-04-27T06:50:43;11.10;99.90
27128;DHT22;14660;49.008;8.390;2023-04-27T06:53:09;11.30;99.90
27128;DHT22;14660;49.008;8.390;2023-04-27T06:55:36;11.60;99.90
27128;DHT22;14660;49.008;8.390;2023-04-27T06:58:03;11.80;99.90
27128;DHT22;14660;49.008;8.390;2023-04-27T07:00:30;12.00;99.90
27128;DHT22;14660;49.008;8.390;2023-04-27T07:02:57;11.60;99.90
27128;DHT22;14660;49.008;8.390;2023-04-27T07:05:24;11.70;99.90
27128;DHT22;14660;49.008;8.390;2023-04-27T07:07:51;12.00;99.90
27128;DHT22;14660;49.008;8.390;2023-04-27T07:10:18;12.10;99.90
27128;DHT22;14660;49.008;8.390;2023-04-27T07:12:46;12.20;99.90
27128;DHT22;14660;49.008;8.390;2023-04-27T07:15:13;12.50;99.90
27128;DHT22;14660;49.008;8.390;2023-04-27T07:17:40;12.90;99.90
27128;DHT22;14660;49.008;8.390;2023-04-27T07:20:08;13.20;99.90
27128;DHT22;14660;49.008;8.390;2023-04-27T07:22:35;13.40;99.90
27128;DHT22;14660;49.008;8.390;2023-04-27T07:25:02;13.50;99.90
27128;DHT22;14660;49.008;8.390;2023-04-27T07:27:30;13.70;99.90
27128;DHT22;14660;49.008;8.390;2023-04-27T07:29:57;14.00;99.90
27128;DHT22;14660;49.008;8.390;2023-04-27T07:32:24;14.10;99.90
27128;DHT22;14660;49.008;8.390;2023-04-27T07:34:54;14.10;99.90
27128;DHT22;14660;49.008;8.390;2023-04-27T07:37:21;13.40;99.90
27128;DHT22;14660;49.008;8.390;2023-04-27T07:39:50;13.30;99.90
27128;DHT22;14660;49.008;8.390;2023-04-27T07:42:20;13.50;99.90
27128;DHT22;14660;49.008;8.390;2023-04-27T07:44:50;13.70;99.90
27128;DHT22;14660;49.008;8.390;2023-04-27T07:47:17;13.80;99.90
27128;DHT22;14660;49.008;8.390;2023-04-27T07:49:44;13.90;99.90
27128;DHT22;14660;49.008;8.390;2023-04-27T07:52:14;14.10;99.90
27128;DHT22;14660;49.008;8.390;2023-04-27T07:54:41;14.30;99.90
27128;DHT22;14660;49.008;8.390;2023-04-27T07:57:11;14.30;99.90
27128;DHT22;14660;49.008;8.390;2023-04-27T07:59:38;14.50;99.90
27128;DHT22;14660;49.008;8.390;2023-04-27T08:02:06;14.50;99.90
27128;DHT22;14660;49.008;8.390;2023-04-27T08:04:33;14.80;99.90
27128;DHT22;14660;49.008;8.390;2023-04-27T08:06:59;14.90;99.90
27128;DHT22;14660;49.008;8.390;2023-04-27T08:09:27;15.20;99.90
27128;DHT22;14660;49.008;8.390;2023-04-27T08:11:53;15.20;99.90
27128;DHT22;14660;49.008;8.390;2023-04-27T08:14:20;15.30;99.90
27128;DHT22;14660;49.008;8.390;2023-04-27T08:16:47;15.40;99.90
27128;DHT22;14660;49.008;8.390;2023-04-27T08:19:14;15.40;99.90
27128;DHT22;14660;49.008;8.390;2023-04-27T08:21:41;15.40;99.90
27128;DHT22;14660;49.008;8.390;2023-04-27T08:24:08;15.40;99.90
27128;DHT22;14660;49.008;8.390;2023-04-27T08:26:35;15.50;99.90
27128;DHT22;14660;49.008;8.390;2023-04-27T08:29:02;15.50;99.90
27128;DHT22;14660;49.008;8.390;2023-04-27T08:31:29;15.40;99.90
27128;DHT22;14660;49.008;8.390;2023-04-27T08:33:56;15.60;99.90
27128;DHT22;14660;49.008;8.390;2023-04-27T08:36:24;15.80;99.90
27128;DHT22;14660;49.008;8.390;2023-04-27T08:38:52;15.80;99.90
27128;DHT22;14660;49.008;8.390;2023-04-27T08:41:20;15.90;99.90
27128;DHT22;14660;49.008;8.390;2023-04-27T08:43:48;16.00;99.90
27128;DHT22;14660;49.008;8.390;2023-04-27T08:46:23;16.10;99.90
27128;DHT22;14660;49.008;8.390;2023-04-27T08:48:53;16.20;99.90
27128;DHT22;14660;49.008;8.390;2023-04-27T08:51:21;16.20;99.90
27128;DHT22;14660;49.008;8.390;2023-04-27T08:53:53;16.20;99.90
27128;DHT22;14660;49.008;8.390;2023-04-27T08:56:21;16.30;99.90
27128;DHT22;14660;49.008;8.390;2023-04-27T08:58:51;16.40;99.90
27128;DHT22;14660;49.008;8.390;2023-04-27T09:01:20;16.50;99.90
27128;DHT22;14660;49.008;8.390;2023-04-27T09:03:47;16.50;99.90
27128;DHT22;14660;49.008;8.390;2023-04-27T09:06:14;16.50;99.90
27128;DHT22;14660;49.008;8.390;2023-04-27T09:08:48;16.60;99.90
27128;DHT22;14660;49.008;8.390;2023-04-27T09:11:35;16.60;99.90
27128;DHT22;14660;49.008;8.390;2023-04-27T09:14:24;16.60;99.90
27128;DHT22;14660;49.008;8.390;2023-04-27T09:16:57;16.70;99.90
27128;DHT22;14660;49.008;8.390;2023-04-27T09:19:28;16.70;99.90
27128;DHT22;14660;49.008;8.390;2023-04-27T09:22:14;16.90;99.90
27128;DHT22;14660;49.008;8.390;2023-04-27T09:24:50;16.90;99.90
27128;DHT22;14660;49.008;8.390;2023-04-27T09:27:21;16.90;99.90
27128;DHT22;14660;49.008;8.390;2023-04-27T09:29:48;16.80;99.90
27128;DHT22;14660;49.008;8.390;2023-04-27T09:32:18;16.80;99.90
27128;DHT22;14660;49.008;8.390;2023-04-27T09:34:49;16.80;99.90
27128;DHT22;14660;49.008;8.390;2023-04-27T09:37:16;16.50;99.90
27128;DHT22;14660;49.008;8.390;2023-04-27T09:39:43;16.60;99.90
27128;DHT22;14660;49.008;8.390;2023-04-27T09:42:11;16.80;99.90
27128;DHT22;14660;49.008;8.390;2023-04-27T09:44:40;16.90;99.90
27128;DHT22;14660;49.008;8.390;2023-04-27T09:47:07;16.80;99.90
27128;DHT22;14660;49.008;8.390;2023-04-27T09:49:35;16.80;99.90
27128;DHT22;14660;49.008;8.390;2023-04-27T09:52:01;16.90;99.90
27128;DHT22;14660;49.008;8.390;2023-04-27T09:54:30;17.00;99.90
27128;DHT22;14660;49.008;8.390;2023-04-27T09:58:02;17.10;99.90
27128;DHT22;14660;49.008;8.390;2023-04-27T10:00:32;17.10;99.90
27128;DHT22;14660;49.008;8.390;2023-04-27T10:03:31;17.20;99.90
27128;DHT22;14660;49.008;8.390;2023-04-27T10:09:03;17.00;99.90
27128;DHT22;14660;49.008;8.390;2023-04-27T10:11:51;17.00;99.90
27128;DHT22;14660;49.008;8.390;2023-04-27T10:14:20;17.00;99.90
27128;DHT22;14660;49.008;8.390;2023-04-27T10:17:09;17.00;99.90
27128;DHT22;14660;49.008;8.390;2023-04-27T10:19:36;17.00;99.90
27128;DHT22;14660;49.008;8.390;2023-04-27T10:22:03;17.10;99.90
27128;DHT22;14660;49.008;8.390;2023-04-27T10:24:40;17.20;99.90
27128;DHT22;14660;49.008;8.390;2023-04-27T10:27:10;17.30;99.90
27128;DHT22;14660;49.008;8.390;2023-04-27T10:29:43;17.20;99.90
27128;DHT22;14660;49.008;8.390;2023-04-27T10:32:28;17.20;99.90
27128;DHT22;14660;49.008;8.390;2023-04-27T10:35:04;17.30;99.90
27128;DHT22;14660;49.008;8.390;2023-04-27T10:37:41;16.90;99.90
27128;DHT22;14660;49.008;8.390;2023-04-27T10:40:09;16.90;99.90
27128;DHT22;14660;49.008;8.390;2023-04-27T10:42:40;17.00;99.90
27128;DHT22;14660;49.008;8.390;2023-04-27T10:45:08;17.10;99.90
27128;DHT22;14660;49.008;8.390;2023-04-27T10:47:56;17.30;99.90
27128;DHT22;14660;49.008;8.390;2023-04-27T10:50:24;17.40;99.90
27128;DHT22;14660;49.008;8.390;2023-04-27T10:52:51;17.40;99.90
27128;DHT22;14660;49.008;8.390;2023-04-27T10:55:20;17.60;99.90
27128;DHT22;14660;49.008;8.390;2023-04-27T10:58:06;17.40;99.90
27128;DHT22;14660;49.008;8.390;2023-04-27T11:00:41;17.60;99.90
27128;DHT22;14660;49.008;8.390;2023-04-27T11:03:20;17.80;99.90
27128;DHT22;14660;49.008;8.390;2023-04-27T11:05:48;17.60;99.90
27128;DHT22;14660;49.008;8.390;2023-04-27T11:08:24;17.70;99.90
27128;DHT22;14660;49.008;8.390;2023-04-27T11:10:51;17.90;99.90
27128;DHT22;14660;49.008;8.390;2023-04-27T11:13:36;17.90;99.90
27128;DHT22;14660;49.008;8.390;2023-04-27T11:16:03;18.00;99.90
27128;DHT22;14660;49.008;8.390;2023-04-27T11:18:31;18.10;99.90
27128;DHT22;14660;49.008;8.390;2023-04-27T11:21:18;18.00;99.90
27128;DHT22;14660;49.008;8.390;2023-04-27T11:23:51;17.60;99.90
27128;DHT22;14660;49.008;8.390;2023-04-27T11:26:35;17.80;99.90
27128;DHT22;14660;49.008;8.390;2023-04-27T11:29:19;17.70;99.90
27128;DHT22;14660;49.008;8.390;2023-04-27T11:32:04;17.90;99.90
27128;DHT22;14660;49.008;8.390;2023-04-27T11:34:31;18.10;99.90
27128;DHT22;14660;49.008;8.390;2023-04-27T11:37:25;18.30;99.90
27128;DHT22;14660;49.008;8.390;2023-04-27T11:39:53;18.30;99.90
27128;DHT22;14660;49.008;8.390;2023-04-27T11:42:40;18.40;99.90
27128;DHT22;14660;49.008;8.390;2023-04-27T11:45:10;18.20;99.90
27128;DHT22;14660;49.008;8.390;2023-04-27T11:47:37;18.30;99.90
27128;DHT22;14660;49.008;8.390;2023-04-27T11:50:06;18.30;99.90
27128;DHT22;14660;49.008;8.390;2023-04-27T11:52:51;18.30;99.90
27128;DHT22;14660;49.008;8.390;2023-04-27T11:55:22;18.30;99.90
27128;DHT22;14660;49.008;8.390;2023-04-27T11:57:56;18.30;99.90
27128;DHT22;14660;49.008;8.390;2023-04-27T12:00:23;18.00;99.90
27128;DHT22;14660;49.008;8.390;2023-04-27T12:02:51;17.70;99.90
27128;DHT22;14660;49.008;8.390;2023-04-27T12:05:17;17.60;99.90
27128;DHT22;14660;49.008;8.390;2023-04-27T12:07:45;17.50;99.90
27128;DHT22;14660;49.008;8.390;2023-04-27T12:10:12;17.40;99.90
27128;DHT22;14660;49.008;8.390;2023-04-27T12:12:39;17.20;99.90
27128;DHT22;14660;49.008;8.390;2023-04-27T12:15:06;17.20;99.90
27128;DHT22;14660;49.008;8.390;2023-04-27T12:17:34;17.20;99.90
27128;DHT22;14660;49.008;8.390;2023-04-27T12:20:01;17.20;99.90
27128;DHT22;14660;49.008;8.390;2023-04-27T12:22:27;17.30;99.90
27128;DHT22;14660;49.008;8.390;2023-04-27T12:24:54;17.40;99.90
27128;DHT22;14660;49.008;8.390;2023-04-27T12:27:21;17.40;99.90
27128;DHT22;14660;49.008;8.390;2023-04-27T12:29:48;17.40;99.90
27128;DHT22;14660;49.008;8.390;2023-04-27T12:32:15;17.40;99.90
27128;DHT22;14660;49.008;8.390;2023-04-27T12:34:42;17.50;99.90
27128;DHT22;14660;49.008;8.390;2023-04-27T12:37:09;17.50;99.90
27128;DHT22;14660;49.008;8.390;2023-04-27T12:39:36;17.60;99.90
27128;DHT22;14660;49.008;8.390;2023-04-27T12:42:03;17.50;99.90
27128;DHT22;14660;49.008;8.390;2023-04-27T12:44:30;17.60;99.90
27128;DHT22;14660;49.008;8.390;2023-04-27T12:46:57;17.70;99.90
27128;DHT22;14660;49.008;8.390;2023-04-27T12:49:24;17.50;99.90
27128;DHT22;14660;49.008;8.390;2023-04-27T12:51:51;17.70;99.90
27128;DHT22;14660;49.008;8.390;2023-04-27T12:54:18;17.70;99.90
27128;DHT22;14660;49.008;8.390;2023-04-27T12:56:45;17.80;99.90
27128;DHT22;14660;49.008;8.390;2023-04-27T12:59:12;17.80;99.90
27128;DHT22;14660;49.008;8.390;2023-04-27T13:01:39;17.70;99.90
27128;DHT22;14660;49.008;8.390;2023-04-27T13:04:06;17.80;99.90
27128;DHT22;14660;49.008;8.390;2023-04-27T13:06:33;17.90;99.90
27128;DHT22;14660;49.008;8.390;2023-04-27T13:09:00;17.90;99.90
27128;DHT22;14660;49.008;8.390;2023-04-27T13:11:28;17.50;99.90
27128;DHT22;14660;49.008;8.390;2023-04-27T13:13:55;17.60;99.90
27128;DHT22;14660;49.008;8.390;2023-04-27T13:16:22;17.60;99.90
27128;DHT22;14660;49.008;8.390;2023-04-27T13:18:52;17.70;99.90
27128;DHT22;14660;49.008;8.390;2023-04-27T13:21:21;17.70;99.90
27128;DHT22;14660;49.008;8.390;2023-04-27T13:23:49;17.40;99.90
27128;DHT22;14660;49.008;8.390;2023-04-27T13:26:16;17.40;99.90
27128;DHT22;14660;49.008;8.390;2023-04-27T13:28:43;17.60;99.90
27128;DHT22;14660;49.008;8.390;2023-04-27T13:31:09;17.80;99.90
27128;DHT22;14660;49.008;8.390;2023-04-27T13:33:41;17.90;99.90
27128;DHT22;14660;49.008;8.390;2023-04-27T13:36:09;18.00;99.90
27128;DHT22;14660;49.008;8.390;2023-04-27T13:38:36;18.20;99.90
27128;DHT22;14660;49.008;8.390;2023-04-27T13:41:03;18.10;99.90
27128;DHT22;14660;49.008;8.390;2023-04-27T13:43:30;18.20;99.90
27128;DHT22;14660;49.008;8.390;2023-04-27T13:45:57;18.30;99.90
27128;DHT22;14660;49.008;8.390;2023-04-27T13:48:24;18.50;99.90
27128;DHT22;14660;49.008;8.390;2023-04-27T13:50:52;18.80;99.90
27128;DHT22;14660;49.008;8.390;2023-04-27T13:53:19;19.00;99.90
27128;DHT22;14660;49.008;8.390;2023-04-27T13:55:46;19.00;99.90
27128;DHT22;14660;49.008;8.390;2023-04-27T13:58:13;19.10;99.90
27128;DHT22;14660;49.008;8.390;2023-04-27T14:00:40;19.10;99.90
27128;DHT22;14660;49.008;8.390;2023-04-27T14:03:07;19.20;99.90
27128;DHT22;14660;49.008;8.390;2023-04-27T14:05:34;18.90;99.90
27128;DHT22;14660;49.008;8.390;2023-04-27T14:08:02;19.00;99.90
27128;DHT22;14660;49.008;8.390;2023-04-27T14:10:29;19.20;99.90
27128;DHT22;14660;49.008;8.390;2023-04-27T14:12:55;18.90;99.90
27128;DHT22;14660;49.008;8.390;2023-04-27T14:15:23;18.80;99.90
27128;DHT22;14660;49.008;8.390;2023-04-27T14:17:49;19.10;99.90
27128;DHT22;14660;49.008;8.390;2023-04-27T14:20:16;19.20;99.90
27128;DHT22;14660;49.008;8.390;2023-04-27T14:22:43;19.40;99.90
27128;DHT22;14660;49.008;8.390;2023-04-27T14:25:10;19.60;99.90
27128;DHT22;14660;49.008;8.390;2023-04-27T14:27:37;19.70;99.90
27128;DHT22;14660;49.008;8.390;2023-04-27T14:30:05;19.50;99.90
27128;DHT22;14660;49.008;8.390;2023-04-27T14:32:32;19.50;99.90
27128;DHT22;14660;49.008;8.390;2023-04-27T14:34:59;19.60;99.90
27128;DHT22;14660;49.008;8.390;2023-04-27T14:37:25;19.60;99.90
27128;DHT22;14660;49.008;8.390;2023-04-27T14:39:52;19.60;99.90
27128;DHT22;14660;49.008;8.390;2023-04-27T14:42:18;19.60;99.90
27128;DHT22;14660;49.008;8.390;2023-04-27T14:44:44;19.70;99.90
27128;DHT22;14660;49.008;8.390;2023-04-27T14:47:13;19.60;99.90
27128;DHT22;14660;49.008;8.390;2023-04-27T14:49:40;19.50;99.90
27128;DHT22;14660;49.008;8.390;2023-04-27T14:52:07;19.40;99.90
27128;DHT22;14660;49.008;8.390;2023-04-27T14:54:34;19.30;99.90
27128;DHT22;14660;49.008;8.390;2023-04-27T14:57:03;19.40;99.90
27128;DHT22;14660;49.008;8.390;2023-04-27T14:59:30;19.30;99.90
27128;DHT22;14660;49.008;8.390;2023-04-27T15:01:57;19.20;99.90
27128;DHT22;14660;49.008;8.390;2023-04-27T15:04:23;19.20;99.90
27128;DHT22;14660;49.008;8.390;2023-04-27T15:06:50;19.20;99.90
27128;DHT22;14660;49.008;8.390;2023-04-27T15:09:17;19.10;99.90
27128;DHT22;14660;49.008;8.390;2023-04-27T15:11:44;19.10;99.90
27128;DHT22;14660;49.008;8.390;2023-04-27T15:14:12;19.00;99.90
27128;DHT22;14660;49.008;8.390;2023-04-27T15:16:39;19.00;99.90
27128;DHT22;14660;49.008;8.390;2023-04-27T15:19:06;18.90;99.90
27128;DHT22;14660;49.008;8.390;2023-04-27T15:21:32;18.90;99.90
27128;DHT22;14660;49.008;8.390;2023-04-27T15:23:59;18.90;99.90
27128;DHT22;14660;49.008;8.390;2023-04-27T15:26:26;18.90;99.90
27128;DHT22;14660;49.008;8.390;2023-04-27T15:28:53;18.90;99.90
27128;DHT22;14660;49.008;8.390;2023-04-27T15:31:19;18.90;99.90
27128;DHT22;14660;49.008;8.390;2023-04-27T15:33:47;19.00;99.90
27128;DHT22;14660;49.008;8.390;2023-04-27T15:36:13;19.10;99.90
27128;DHT22;14660;49.008;8.390;2023-04-27T15:38:41;19.20;99.90
27128;DHT22;14660;49.008;8.390;2023-04-27T15:41:08;19.20;99.90
27128;DHT22;14660;49.008;8.390;2023-04-27T15:43:35;19.20;99.90
27128;DHT22;14660;49.008;8.390;2023-04-27T15:46:05;19.20;99.90
27128;DHT22;14660;49.008;8.390;2023-04-27T15:48:32;19.20;99.90
27128;DHT22;14660;49.008;8.390;2023-04-27T15:50:59;19.10;99.90
27128;DHT22;14660;49.008;8.390;2023-04-27T15:53:25;19.00;99.90
27128;DHT22;14660;49.008;8.390;2023-04-27T15:55:53;19.00;99.90
27128;DHT22;14660;49.008;8.390;2023-04-27T15:58:19;18.90;99.90
27128;DHT22;14660;49.008;8.390;2023-04-27T16:00:46;18.90;99.90
27128;DHT22;14660;49.008;8.390;2023-04-27T16:03:13;18.70;99.90
27128;DHT22;14660;49.008;8.390;2023-04-27T16:05:40;18.60;99.90
27128;DHT22;14660;49.008;8.390;2023-04-27T16:08:06;18.60;99.90
27128;DHT22;14660;49.008;8.390;2023-04-27T16:10:32;18.50;99.90
27128;DHT22;14660;49.008;8.390;2023-04-27T16:12:59;18.40;99.90
27128;DHT22;14660;49.008;8.390;2023-04-27T16:15:26;18.20;99.90
27128;DHT22;14660;49.008;8.390;2023-04-27T16:17:53;18.30;99.90
27128;DHT22;14660;49.008;8.390;2023-04-27T16:20:19;18.40;99.90
27128;DHT22;14660;49.008;8.390;2023-04-27T16:22:47;18.30;99.90
27128;DHT22;14660;49.008;8.390;2023-04-27T16:25:14;18.30;99.90
27128;DHT22;14660;49.008;8.390;2023-04-27T16:27:41;18.30;99.90
27128;DHT22;14660;49.008;8.390;2023-04-27T16:30:09;18.30;99.90
27128;DHT22;14660;49.008;8.390;2023-04-27T16:32:36;18.20;99.90
27128;DHT22;14660;49.008;8.390;2023-04-27T16:35:03;18.20;99.90
27128;DHT22;14660;49.008;8.390;2023-04-27T16:37:31;18.20;99.90
27128;DHT22;14660;49.008;8.390;2023-04-27T16:39:58;18.30;99.90